Time;durP1;ratioP1;P1;durP2;ratioP2;P2;SDS_P1;SDS_P2;PMS_P1;PMS_P2;Temp;Humidity;BMP_temperature;BMP_pressure;BME280_temperature;BME280_humidity;BME280_pressure;Samples;Min_cycle;Max_cycle;Signal;HPM_P1;HPM_P2
2023/03/06 00:00:06;;;;;;;12.55;7.07;;;;;;;-1.28;100.00;92116.03;2083513;28;20029;-86
2023/03/06 00:01:08;;;;;;;10.32;6.72;;;;;;;-1.25;100.00;92125.03;2075143;28;20058;-84
2023/03/06 00:02:11;;;;;;;10.52;6.40;;;;;;;-1.31;100.00;92122.78;2072376;28;20485;-86
2023/03/06 00:03:23;;;;;;;9.85;6.63;;;;;;;-1.32;100.00;92123.13;2085037;28;20078;-84
2023/03/06 00:04:24;;;;;;;8.90;6.15;;;;;;;-1.32;100.00;92129.13;2080450;28;20021;-84
2023/03/06 00:05:27;;;;;;;9.05;5.60;;;;;;;-1.32;100.00;92123.13;2068781;28;20674;-85
2023/03/06 00:06:28;;;;;;;9.63;6.55;;;;;;;-1.29;100.00;92117.91;2080364;28;20029;-85
2023/03/06 00:07:29;;;;;;;9.90;6.63;;;;;;;-1.27;100.00;92118.31;2094406;28;20026;-86
2023/03/06 00:08:30;;;;;;;9.73;6.50;;;;;;;-1.30;100.00;92121.66;2068529;28;20045;-87
2023/03/06 00:09:33;;;;;;;9.45;6.07;;;;;;;-1.34;100.00;92118.25;2071860;28;20150;-87
2023/03/06 00:10:34;;;;;;;10.70;6.75;;;;;;;-1.34;100.00;92115.63;2073428;28;20029;-82
2023/03/06 00:11:48;;;;;;;8.57;5.55;;;;;;;-1.31;100.00;92119.41;2080261;28;20022;-83
2023/03/06 00:12:56;;;;;;;8.93;6.00;;;;;;;-1.31;100.00;92109.66;2090030;28;20025;-83
2023/03/06 00:13:57;;;;;;;9.88;6.15;;;;;;;-1.29;100.00;92117.16;2083989;28;20040;-84
2023/03/06 00:14:58;;;;;;;10.50;5.80;;;;;;;-1.25;100.00;92109.31;2081902;28;20168;-85
2023/03/06 00:16:00;;;;;;;10.18;6.05;;;;;;;-1.25;100.00;92112.69;2080092;28;20026;-84
2023/03/06 00:17:01;;;;;;;9.80;5.97;;;;;;;-1.23;100.00;92110.44;2084801;28;20033;-86
2023/03/06 00:18:04;;;;;;;8.57;5.88;;;;;;;-1.28;100.00;92106.28;2099452;28;20020;-83
2023/03/06 00:19:06;;;;;;;9.73;6.45;;;;;;;-1.33;100.00;92108.50;2083814;28;20102;-83
2023/03/06 00:20:10;;;;;;;12.27;6.32;;;;;;;-1.34;100.00;92102.53;2081312;28;20025;-84
2023/03/06 00:21:11;;;;;;;8.70;5.57;;;;;;;-1.30;100.00;92100.69;2090171;28;20584;-87
2023/03/06 00:22:13;;;;;;;10.65;6.47;;;;;;;-1.25;100.00;92093.59;2073518;28;20042;-82
2023/03/06 00:23:14;;;;;;;9.07;6.05;;;;;;;-1.23;100.00;92099.94;2081040;28;20064;-85
2023/03/06 00:24:15;;;;;;;10.82;6.40;;;;;;;-1.23;100.00;92101.81;2090361;28;20161;-87
2023/03/06 00:25:19;;;;;;;9.63;6.50;;;;;;;-1.23;100.00;92092.09;2073917;28;20025;-83
2023/03/06 00:26:20;;;;;;;12.13;6.45;;;;;;;-1.27;100.00;92093.97;2072606;28;20033;-84
2023/03/06 00:27:24;;;;;;;11.07;7.00;;;;;;;-1.25;100.00;92093.59;2079722;28;20017;-87
2023/03/06 00:28:29;;;;;;;9.10;6.25;;;;;;;-1.31;100.00;92093.19;2082406;28;20024;-84
2023/03/06 00:29:31;;;;;;;7.90;6.13;;;;;;;-1.27;100.00;92099.22;2079804;28;20014;-86
2023/03/06 00:30:32;;;;;;;11.82;6.43;;;;;;;-1.27;100.00;92080.84;2080436;28;20017;-86
2023/03/06 00:31:34;;;;;;;12.65;7.25;;;;;;;-1.26;100.00;92079.72;2080606;28;20463;-82
2023/03/06 00:32:35;;;;;;;10.27;6.60;;;;;;;-1.27;100.00;92081.59;2083755;28;20082;-83
2023/03/06 00:33:36;;;;;;;10.10;6.55;;;;;;;-1.34;100.00;92086.81;2082674;28;20025;-83
2023/03/06 00:34:37;;;;;;;11.43;5.97;;;;;;;-1.35;100.00;92084.56;2080762;28;20033;-86
2023/03/06 00:35:39;;;;;;;9.93;6.05;;;;;;;-1.35;100.00;92080.06;2079823;28;20082;-85
2023/03/06 00:36:45;;;;;;;9.05;6.57;;;;;;;-1.35;100.00;92089.78;2092890;28;20359;-83
2023/03/06 00:37:47;;;;;;;12.13;6.43;;;;;;;-1.44;100.00;92082.25;2085328;28;20040;-83
2023/03/06 00:38:48;;;;;;;10.85;6.45;;;;;;;-1.38;100.00;92080.78;2081089;28;20026;-85
2023/03/06 00:39:50;;;;;;;10.55;6.47;;;;;;;-1.33;100.00;92077.06;2065857;28;20022;-83
2023/03/06 00:40:51;;;;;;;10.32;6.65;;;;;;;-1.42;100.00;92080.00;2085468;28;20148;-86
2023/03/06 00:41:52;;;;;;;8.80;5.78;;;;;;;-1.32;100.00;92070.69;2085399;28;20086;-83
2023/03/06 00:42:53;;;;;;;8.25;5.60;;;;;;;-1.33;100.00;92074.44;2091684;28;20020;-86
2023/03/06 00:43:55;;;;;;;8.15;5.90;;;;;;;-1.40;100.00;92072.53;2090053;28;20024;-84
2023/03/06 00:44:56;;;;;;;7.65;5.72;;;;;;;-1.41;100.00;92075.50;2070467;28;20021;-86
2023/03/06 00:45:57;;;;;;;7.63;5.75;;;;;;;-1.38;100.00;92075.53;2081906;28;20029;-82
2023/03/06 00:46:58;;;;;;;10.18;6.53;;;;;;;-1.33;100.00;92069.94;2084456;28;20031;-83
2023/03/06 00:48:00;;;;;;;8.48;5.63;;;;;;;-1.25;100.00;92070.75;2087208;28;20024;-82
2023/03/06 00:49:01;;;;;;;8.50;6.38;;;;;;;-1.34;100.00;92062.47;2079879;28;20025;-82
2023/03/06 00:50:03;;;;;;;8.90;6.20;;;;;;;-1.31;100.00;92065.09;2081516;28;20039;-82
2023/03/06 00:51:04;;;;;;;9.88;6.43;;;;;;;-1.32;100.00;92068.84;2087276;28;20112;-83
2023/03/06 00:52:05;;;;;;;7.85;6.03;;;;;;;-1.36;100.00;92065.47;2078075;28;20540;-85
2023/03/06 00:53:06;;;;;;;9.45;6.47;;;;;;;-1.33;100.00;92069.94;2087351;28;20025;-86
2023/03/06 00:54:07;;;;;;;11.25;6.70;;;;;;;-1.29;100.00;92068.09;2080385;28;20549;-85
2023/03/06 00:55:09;;;;;;;9.57;6.50;;;;;;;-1.21;100.00;92065.53;2080708;28;20020;-84
2023/03/06 00:56:10;;;;;;;9.85;6.88;;;;;;;-1.29;100.00;92068.09;2081795;28;20021;-84
2023/03/06 00:57:23;;;;;;;10.30;6.80;;;;;;;-1.44;100.00;92069.16;2075615;28;20050;-82
2023/03/06 00:58:24;;;;;;;11.43;6.57;;;;;;;-1.44;100.00;92060.53;2073361;28;20026;-85
2023/03/06 00:59:26;;;;;;;10.00;6.35;;;;;;;-1.38;100.00;92062.44;2079207;28;20022;-84
2023/03/06 01:00:27;;;;;;;9.38;6.13;;;;;;;-1.38;100.00;92061.69;2083359;28;20111;-82
2023/03/06 01:01:28;;;;;;;9.63;6.05;;;;;;;-1.32;100.00;92062.84;2079471;28;20071;-81
2023/03/06 01:02:29;;;;;;;12.27;7.03;;;;;;;-1.32;100.00;92055.75;2081286;28;20029;-86
2023/03/06 01:03:30;;;;;;;11.35;7.18;;;;;;;-1.43;100.00;92068.03;2070741;28;20056;-85
2023/03/06 01:04:32;;;;;;;10.13;6.25;;;;;;;-1.41;100.00;92057.16;2071862;28;20393;-86
2023/03/06 01:05:35;;;;;;;9.90;7.13;;;;;;;-1.45;100.00;92056.41;2071957;28;20108;-85
2023/03/06 01:06:47;;;;;;;9.70;6.45;;;;;;;-1.40;100.00;92054.19;2083679;28;20039;-82
2023/03/06 01:07:48;;;;;;;11.73;7.30;;;;;;;-1.30;100.00;92055.38;2081424;28;20470;-82
2023/03/06 01:08:49;;;;;;;9.02;6.57;;;;;;;-1.29;100.00;92047.13;2089629;28;20167;-85
2023/03/06 01:09:50;;;;;;;10.60;7.05;;;;;;;-1.35;100.00;92047.84;2080024;28;20013;-85
2023/03/06 01:10:51;;;;;;;10.77;7.10;;;;;;;-1.31;100.00;92044.13;2080602;28;20048;-82
2023/03/06 01:11:53;;;;;;;15.30;7.22;;;;;;;-1.33;100.00;92045.63;2083209;28;20560;-85
2023/03/06 01:12:54;;;;;;;11.15;7.57;;;;;;;-1.35;100.00;92043.38;2071959;28;20022;-84
2023/03/06 01:13:55;;;;;;;12.13;7.03;;;;;;;-1.40;100.00;92048.22;2081647;28;20025;-84
2023/03/06 01:14:56;;;;;;;11.07;7.60;;;;;;;-1.32;100.00;92041.88;2078162;28;20179;-86
2023/03/06 01:16:13;;;;;;;10.73;7.53;;;;;;;-1.27;100.00;92046.78;2082679;28;20029;-86
2023/03/06 01:17:33;;;;;;;11.13;7.32;;;;;;;-1.40;100.00;92045.59;2086962;28;20406;-85
2023/03/06 01:18:35;;;;;;;12.20;7.57;;;;;;;-1.33;100.00;92043.00;2090887;28;20016;-82
2023/03/06 01:19:37;;;;;;;12.70;7.55;;;;;;;-1.31;100.00;92041.50;2097919;28;20576;-84
2023/03/06 01:20:39;;;;;;;14.02;7.57;;;;;;;-1.28;100.00;92042.63;2098041;28;20019;-88
2023/03/06 01:21:51;;;;;;;11.75;7.65;;;;;;;-1.28;100.00;92034.78;2078528;28;20029;-85
2023/03/06 01:22:54;;;;;;;13.02;8.02;;;;;;;-1.27;100.00;92037.03;2085300;28;20039;-85
2023/03/06 01:23:55;;;;;;;9.55;6.53;;;;;;;-1.32;100.00;92039.25;2083655;28;20033;-83
2023/03/06 01:24:56;;;;;;;11.60;7.78;;;;;;;-1.33;100.00;92037.75;2081325;28;20026;-81
2023/03/06 01:25:57;;;;;;;12.50;7.70;;;;;;;-1.31;100.00;92041.50;2089923;28;20159;-87
2023/03/06 01:27:09;;;;;;;15.07;7.35;;;;;;;-1.32;100.00;92034.78;2085957;28;20060;-85
2023/03/06 01:28:10;;;;;;;10.57;7.32;;;;;;;-1.28;100.00;92032.16;2076113;28;20180;-82
2023/03/06 01:29:11;;;;;;;12.30;7.50;;;;;;;-1.35;100.00;92025.03;2075245;28;20097;-86
2023/03/06 01:30:13;;;;;;;12.55;7.63;;;;;;;-1.36;100.00;92033.22;2088532;28;20410;-83
2023/03/06 01:31:34;;;;;;;14.52;7.00;;;;;;;-1.41;100.00;92033.59;2088401;28;20028;-84
2023/03/06 01:32:35;;;;;;;11.90;7.70;;;;;;;-1.47;100.00;92025.31;2083491;28;20020;-85
2023/03/06 01:33:36;;;;;;;14.38;7.63;;;;;;;-1.41;100.00;92028.34;2082396;28;20132;-86
2023/03/06 01:34:38;;;;;;;12.68;7.32;;;;;;;-1.38;100.00;92031.00;2075821;28;20030;-85
2023/03/06 01:35:39;;;;;;;11.50;7.55;;;;;;;-1.36;100.00;92022.75;2074522;28;20530;-82
2023/03/06 01:36:54;;;;;;;11.85;7.55;;;;;;;-1.41;100.00;92026.47;2076908;28;20335;-86
2023/03/06 01:37:55;;;;;;;10.88;7.22;;;;;;;-1.31;100.00;92028.41;2079915;28;20367;-84
2023/03/06 01:38:56;;;;;;;12.55;7.60;;;;;;;-1.30;100.00;92021.28;2089998;28;20037;-82
2023/03/06 01:39:58;;;;;;;9.95;7.32;;;;;;;-1.33;100.00;92019.41;2081792;28;20024;-86
2023/03/06 01:41:00;;;;;;;14.52;8.20;;;;;;;-1.37;100.00;92023.88;2078018;28;20025;-84
2023/03/06 01:42:01;;;;;;;13.68;7.97;;;;;;;-1.41;100.00;92015.25;2078350;28;20418;-83
2023/03/06 01:43:25;;;;;;;13.85;8.43;;;;;;;-1.32;100.00;92018.28;2088621;28;20021;-84
2023/03/06 01:44:26;;;;;;;13.38;7.05;;;;;;;-1.22;100.00;92014.22;2078553;28;20037;-84
2023/03/06 01:45:33;;;;;;;12.00;7.35;;;;;;;-1.27;100.00;92017.94;2086938;28;20454;-84
2023/03/06 01:46:44;;;;;;;9.90;7.32;;;;;;;-1.29;100.00;92012.31;2105685;28;20028;-86
2023/03/06 01:47:45;;;;;;;12.32;7.25;;;;;;;-1.25;100.00;92007.84;2097395;28;20035;-84
2023/03/06 01:48:49;;;;;;;13.38;7.70;;;;;;;-1.32;100.00;92002.53;2080357;28;20040;-85
2023/03/06 01:49:52;;;;;;;11.30;7.30;;;;;;;-1.33;100.00;91999.19;2073545;28;20033;-86
2023/03/06 01:50:54;;;;;;;14.57;7.50;;;;;;;-1.29;100.00;92001.81;2073862;28;20545;-87
2023/03/06 01:52:10;;;;;;;12.32;7.47;;;;;;;-1.31;100.00;91991.72;2078275;28;20147;-85
2023/03/06 01:53:12;;;;;;;11.75;7.90;;;;;;;-1.32;100.00;91992.06;2088535;28;20025;-85
2023/03/06 01:54:24;;;;;;;10.68;7.50;;;;;;;-1.32;100.00;91994.69;2080973;28;20439;-87
2023/03/06 01:55:31;;;;;;;12.45;7.82;;;;;;;-1.38;100.00;91994.28;2074830;28;20056;-84
2023/03/06 01:56:32;;;;;;;11.45;7.85;;;;;;;-1.32;100.00;91984.97;2073071;28;20459;-86
2023/03/06 01:57:38;;;;;;;13.63;7.68;;;;;;;-1.30;100.00;91985.34;2072712;28;20053;-84
2023/03/06 01:58:45;;;;;;;11.43;7.25;;;;;;;-1.27;100.00;91979.38;2071252;28;20092;-86
2023/03/06 01:59:52;;;;;;;11.63;7.72;;;;;;;-1.25;100.00;91984.25;2081520;28;20021;-87
2023/03/06 02:00:54;;;;;;;10.85;7.30;;;;;;;-1.20;100.00;91983.88;2086822;28;20055;-83
2023/03/06 02:02:02;;;;;;;11.82;7.63;;;;;;;-1.21;100.00;91981.63;2087306;28;20025;-84
2023/03/06 02:03:08;;;;;;;12.80;7.75;;;;;;;-1.33;100.00;91978.22;2089974;28;20086;-84
2023/03/06 02:04:10;;;;;;;12.20;6.65;;;;;;;-1.32;100.00;91976.34;2087448;28;20032;-88
2023/03/06 02:05:12;;;;;;;10.02;7.55;;;;;;;-1.22;100.00;91980.16;2081033;28;20114;-84
2023/03/06 02:06:36;;;;;;;10.95;7.20;;;;;;;-1.16;100.00;91973.41;2082004;28;20048;-86
2023/03/06 02:07:40;;;;;;;11.88;7.45;;;;;;;-1.17;100.00;91972.66;2083536;28;20033;-83
2023/03/06 02:08:42;;;;;;;12.00;7.15;;;;;;;-1.29;100.00;91978.97;2079275;28;20031;-84
2023/03/06 02:09:43;;;;;;;12.45;7.07;;;;;;;-1.30;100.00;91980.09;2071332;28;20475;-83
2023/03/06 02:11:05;;;;;;;11.23;7.22;;;;;;;-1.32;100.00;91973.72;2080277;28;20025;-85
2023/03/06 02:12:17;;;;;;;11.85;7.65;;;;;;;-1.39;100.00;91971.09;2088460;28;20028;-85
2023/03/06 02:13:19;;;;;;;11.05;7.57;;;;;;;-1.42;100.00;91980.44;2074087;28;20153;-84
2023/03/06 02:14:21;;;;;;;12.52;7.65;;;;;;;-1.41;100.00;91971.44;2080805;28;20454;-82
2023/03/06 02:15:25;;;;;;;11.30;7.43;;;;;;;-1.45;100.00;91977.78;2088708;28;20116;-82
2023/03/06 02:16:29;;;;;;;13.38;6.78;;;;;;;-1.33;100.00;91969.59;2072780;28;20037;-85
2023/03/06 02:19:37;;;;;;;;;;;;;;;-1.38;100.00;91969.97;2138665;27;20118;-75
2023/03/06 02:20:49;;;;;;;12.15;6.93;;;;;;;-1.30;100.00;91974.13;2125175;27;20293;-77
2023/03/06 02:22:06;;;;;;;12.43;7.35;;;;;;;-1.30;100.00;91971.50;2108415;28;20643;-75
2023/03/06 02:23:56;;;;;;;12.00;7.13;;;;;;;-1.38;100.00;91969.97;2102812;28;20433;-75
2023/03/06 02:25:22;;;;;;;11.48;7.10;;;;;;;-1.40;100.00;91962.47;2076456;28;20033;-78
2023/03/06 02:26:27;;;;;;;11.90;7.50;;;;;;;-1.43;100.00;91968.44;2116431;27;20031;-74
2023/03/06 02:27:31;;;;;;;13.38;7.30;;;;;;;-1.38;100.00;91968.09;2117360;28;20042;-77
2023/03/06 02:28:33;;;;;;;13.35;7.40;;;;;;;-1.36;100.00;91967.72;2110025;28;20028;-75
2023/03/06 02:29:37;;;;;;;10.35;7.30;;;;;;;-1.39;100.00;91963.22;2102238;28;20024;-78
2023/03/06 02:30:40;;;;;;;11.68;7.32;;;;;;;-1.44;100.00;91964.34;2102203;28;20060;-75
2023/03/06 02:31:55;;;;;;;12.30;7.25;;;;;;;-1.45;100.00;91959.44;2104837;28;20441;-75
2023/03/06 02:32:59;;;;;;;12.65;7.72;;;;;;;-1.44;100.00;91960.97;2119302;27;20106;-75
2023/03/06 02:34:15;;;;;;;12.10;7.40;;;;;;;-1.46;100.00;91957.94;2118422;28;20034;-75
2023/03/06 02:35:27;;;;;;;10.05;6.90;;;;;;;-1.38;100.00;91962.09;2110720;28;20050;-75
2023/03/06 02:36:29;;;;;;;11.35;6.38;;;;;;;-1.32;100.00;91952.75;2113655;27;20119;-75
2023/03/06 02:37:35;;;;;;;10.02;6.70;;;;;;;-1.36;100.00;91960.63;2112919;27;20116;-76
2023/03/06 02:38:49;;;;;;;11.60;6.63;;;;;;;-1.35;100.00;91946.41;2108070;28;20032;-76
2023/03/06 02:40:11;;;;;;;10.73;6.78;;;;;;;-1.39;100.00;91952.75;2113647;27;20449;-76
2023/03/06 02:41:14;;;;;;;11.18;7.15;;;;;;;-1.33;100.00;91956.50;2112514;28;20054;-76
2023/03/06 02:42:25;;;;;;;11.85;7.05;;;;;;;-1.40;100.00;91952.00;2111846;27;20036;-76
2023/03/06 02:43:34;;;;;;;12.48;6.82;;;;;;;-1.42;100.00;91953.47;2110724;28;20071;-78
2023/03/06 02:44:39;;;;;;;10.82;6.72;;;;;;;-1.44;100.00;91947.84;2113924;27;20135;-76
2023/03/06 02:45:51;;;;;;;11.20;6.88;;;;;;;-1.42;100.00;91953.47;2119184;27;20035;-76
2023/03/06 02:47:23;;;;;;;11.02;6.82;;;;;;;-1.39;100.00;91948.25;2131058;27;20030;-75
2023/03/06 02:48:33;;;;;;;11.70;6.95;;;;;;;-1.37;100.00;91945.25;2127197;27;20464;-75
2023/03/06 02:49:39;;;;;;;9.65;6.45;;;;;;;-1.36;100.00;91947.53;2116037;28;20122;-73
2023/03/06 02:50:45;;;;;;;9.50;6.40;;;;;;;-1.32;100.00;91944.88;2119975;27;20355;-75
2023/03/06 02:51:51;;;;;;;9.85;6.80;;;;;;;-1.32;100.00;91942.25;2117870;28;20130;-75
2023/03/06 02:53:05;;;;;;;12.43;6.88;;;;;;;-1.32;100.00;91948.28;2123364;27;20023;-76
2023/03/06 02:54:12;;;;;;;10.43;6.65;;;;;;;-1.27;100.00;91942.69;2122843;27;20035;-76
2023/03/06 02:55:18;;;;;;;10.57;6.50;;;;;;;-1.24;100.00;91940.44;2117574;28;20421;-76
2023/03/06 02:56:37;;;;;;;9.95;6.65;;;;;;;-1.30;100.00;91934.81;2111638;27;20359;-76
2023/03/06 02:57:46;;;;;;;10.27;6.53;;;;;;;-1.34;100.00;91937.41;2110934;28;20031;-76
2023/03/06 02:58:54;;;;;;;10.73;6.45;;;;;;;-1.35;100.00;91932.53;2112737;27;20122;-74
2023/03/06 02:59:55;;;;;;;11.77;6.95;;;;;;;-1.34;100.00;91928.78;2127284;27;20027;-74
2023/03/06 03:00:56;;;;;;;10.38;6.75;;;;;;;-1.39;100.00;91935.16;2136309;27;20041;-76
2023/03/06 03:01:57;;;;;;;9.68;6.68;;;;;;;-1.42;100.00;91937.75;2117179;28;20039;-74
2023/03/06 03:02:59;;;;;;;11.05;6.93;;;;;;;-1.39;100.00;91931.78;2119365;27;20039;-74
2023/03/06 03:04:00;;;;;;;10.52;6.85;;;;;;;-1.35;100.00;91932.53;2126593;27;20031;-76
2023/03/06 03:05:01;;;;;;;10.00;6.63;;;;;;;-1.34;100.00;91929.53;2125639;27;20038;-74
2023/03/06 03:06:04;;;;;;;11.40;7.03;;;;;;;-1.32;100.00;91923.91;2135869;27;20376;-76
2023/03/06 03:07:17;;;;;;;8.63;6.43;;;;;;;-1.34;100.00;91928.78;2136250;27;20250;-74
2023/03/06 03:08:22;;;;;;;10.55;6.85;;;;;;;-1.34;100.00;91924.28;2136924;27;20109;-75
2023/03/06 03:09:23;;;;;;;10.55;6.53;;;;;;;-1.34;100.00;91918.31;2136663;27;20027;-75
2023/03/06 03:10:25;;;;;;;11.20;6.82;;;;;;;-1.34;100.00;91919.06;2136874;27;20026;-75
2023/03/06 03:11:27;;;;;;;10.45;6.53;;;;;;;-1.36;100.00;91920.53;2135535;27;20027;-73
2023/03/06 03:12:28;;;;;;;11.20;6.82;;;;;;;-1.38;100.00;91918.28;2128313;27;20091;-73
2023/03/06 03:13:32;;;;;;;10.40;6.70;;;;;;;-1.34;100.00;91918.31;2127791;27;20031;-76
2023/03/06 03:14:33;;;;;;;10.60;6.88;;;;;;;-1.29;100.00;91920.56;2134381;27;20034;-75
2023/03/06 03:15:34;;;;;;;11.95;6.43;;;;;;;-1.28;100.00;91912.31;2136091;27;20540;-74
2023/03/06 03:16:54;;;;;;;8.82;6.38;;;;;;;-1.36;100.00;91916.06;2134568;27;20035;-75
2023/03/06 03:17:56;;;;;;;9.13;6.78;;;;;;;-1.38;100.00;91920.16;2109546;28;20110;-74
2023/03/06 03:18:57;;;;;;;10.57;6.80;;;;;;;-1.36;100.00;91921.31;2109253;27;20139;-77
2023/03/06 03:19:58;;;;;;;11.23;6.93;;;;;;;-1.37;100.00;91924.28;2118887;27;20039;-77
2023/03/06 03:21:00;;;;;;;13.50;7.13;;;;;;;-1.30;100.00;91916.44;2118688;27;20367;-77
2023/03/06 03:22:06;;;;;;;13.30;7.90;;;;;;;-1.30;100.00;91916.44;2126826;27;20105;-76
2023/03/06 03:23:08;;;;;;;11.90;7.20;;;;;;;-1.32;100.00;91921.28;2118965;28;20031;-76
2023/03/06 03:24:11;;;;;;;10.85;7.13;;;;;;;-1.30;100.00;91913.84;2106732;27;20138;-76
2023/03/06 03:25:13;;;;;;;14.27;7.82;;;;;;;-1.31;100.00;91918.31;2114478;28;20043;-76
2023/03/06 03:26:21;;;;;;;10.88;7.30;;;;;;;-1.40;100.00;91911.94;2107878;28;20035;-77
2023/03/06 03:27:23;;;;;;;11.13;7.03;;;;;;;-1.37;100.00;91911.19;2103266;28;20035;-75
2023/03/06 03:28:25;;;;;;;12.85;7.22;;;;;;;-1.33;100.00;91915.31;2101433;28;20101;-78
2023/03/06 03:29:27;;;;;;;12.57;6.68;;;;;;;-1.32;100.00;91911.59;2114395;28;20036;-76
2023/03/06 03:30:33;;;;;;;11.68;7.50;;;;;;;-1.29;100.00;91910.81;2117772;27;20038;-74
2023/03/06 03:31:34;;;;;;;13.07;7.88;;;;;;;-1.31;100.00;91914.97;2113975;28;20106;-76
2023/03/06 03:32:35;;;;;;;13.60;7.43;;;;;;;-1.25;100.00;91915.34;2105737;28;20043;-75
2023/03/06 03:33:38;;;;;;;9.85;6.57;;;;;;;-1.30;100.00;91909.34;2113761;28;20031;-76
2023/03/06 03:34:41;;;;;;;10.90;6.85;;;;;;;-1.33;100.00;91915.31;2114221;27;20495;-75
2023/03/06 03:35:45;;;;;;;10.63;6.63;;;;;;;-1.35;100.00;91916.81;2109954;27;20066;-76
2023/03/06 03:37:04;;;;;;;9.45;6.50;;;;;;;-1.39;100.00;91910.81;2099130;28;20032;-76
2023/03/06 03:38:09;;;;;;;10.80;6.90;;;;;;;-1.34;100.00;91913.81;2097734;28;20036;-75
2023/03/06 03:39:17;;;;;;;9.85;6.88;;;;;;;-1.37;100.00;91908.56;2102811;27;20490;-76
2023/03/06 03:40:23;;;;;;;12.23;6.72;;;;;;;-1.38;100.00;91905.19;2105359;28;21023;-76
2023/03/06 03:41:46;;;;;;;12.30;7.00;;;;;;;-1.37;100.00;91900.69;2110020;27;20031;-76
2023/03/06 03:42:58;;;;;;;9.18;6.30;;;;;;;-1.41;100.00;91898.06;2105168;28;20059;-76
2023/03/06 03:44:08;;;;;;;10.63;6.88;;;;;;;-1.37;100.00;91911.19;2108513;27;20028;-78
2023/03/06 03:45:21;;;;;;;13.27;6.90;;;;;;;-1.39;100.00;91898.44;2104886;28;20118;-76
2023/03/06 03:46:23;;;;;;;10.02;6.45;;;;;;;-1.39;100.00;91900.31;2097753;28;20127;-76
2023/03/06 03:47:26;;;;;;;8.70;6.75;;;;;;;-1.35;100.00;91898.47;2093940;28;20652;-75
2023/03/06 03:48:27;;;;;;;13.32;6.47;;;;;;;-1.38;100.00;91892.09;2113162;28;20154;-77
2023/03/06 03:49:30;;;;;;;9.38;6.78;;;;;;;-1.36;100.00;91891.72;2111814;28;20027;-75
2023/03/06 03:50:34;;;;;;;10.80;6.93;;;;;;;-1.36;100.00;91895.09;2091336;28;20560;-76
2023/03/06 03:51:46;;;;;;;10.70;7.43;;;;;;;-1.39;100.00;91895.09;2104531;27;20541;-75
2023/03/06 03:52:47;;;;;;;12.48;7.13;;;;;;;-1.35;100.00;91893.97;2112039;28;20039;-75
2023/03/06 03:53:48;;;;;;;10.45;6.90;;;;;;;-1.36;100.00;91887.25;2121704;27;20035;-75
2023/03/06 03:54:49;;;;;;;12.23;7.13;;;;;;;-1.42;100.00;91883.47;2121488;27;20019;-76
2023/03/06 03:55:53;;;;;;;15.10;7.53;;;;;;;-1.39;100.00;91884.59;2111949;28;20118;-77
2023/03/06 03:56:55;;;;;;;11.65;7.18;;;;;;;-1.32;100.00;91877.50;2100572;28;20036;-76
2023/03/06 03:57:56;;;;;;;11.57;7.32;;;;;;;-1.33;100.00;91880.50;2120151;27;20499;-76
2023/03/06 03:58:58;;;;;;;12.50;7.00;;;;;;;-1.38;100.00;91876.38;2121445;27;20117;-76
2023/03/06 03:59:59;;;;;;;11.55;6.90;;;;;;;-1.36;100.00;91881.22;2111527;27;20097;-75
2023/03/06 04:01:00;;;;;;;11.60;6.78;;;;;;;-1.41;100.00;91882.34;2119713;27;20031;-76
2023/03/06 04:02:24;;;;;;;9.85;6.18;;;;;;;-1.35;100.00;91885.38;2112564;28;20023;-76
2023/03/06 04:03:27;;;;;;;9.90;6.07;;;;;;;-1.43;100.00;91874.09;2106689;28;20032;-77
2023/03/06 04:04:30;;;;;;;10.00;6.43;;;;;;;-1.35;100.00;91877.50;2111713;28;20042;-76
2023/03/06 04:05:34;;;;;;;11.63;7.22;;;;;;;-1.39;100.00;91879.38;2109436;28;20478;-78
2023/03/06 04:06:47;;;;;;;10.15;6.45;;;;;;;-1.40;100.00;91888.34;2108171;27;20040;-76
2023/03/06 04:07:50;;;;;;;9.93;5.85;;;;;;;-1.43;100.00;91879.34;2112069;27;20391;-75
2023/03/06 04:08:51;;;;;;;9.52;6.47;;;;;;;-1.35;100.00;91880.88;2113401;28;20028;-75
2023/03/06 04:09:56;;;;;;;10.25;6.90;;;;;;;-1.40;100.00;91886.47;2104682;28;20051;-76
2023/03/06 04:10:58;;;;;;;9.60;6.13;;;;;;;-1.41;100.00;91882.34;2095957;28;20033;-76
2023/03/06 04:12:17;;;;;;;11.02;6.53;;;;;;;-1.40;100.00;91881.25;2099358;28;20398;-77
2023/03/06 04:13:29;;;;;;;8.52;6.10;;;;;;;-1.28;100.00;91882.75;2104802;27;20059;-77
2023/03/06 04:15:11;;;;;;;9.77;6.47;;;;;;;-1.29;100.00;91884.63;2111925;27;20031;-77
2023/03/06 04:16:23;;;;;;;8.02;5.50;;;;;;;-1.35;100.00;91886.13;2116335;27;20427;-78
2023/03/06 04:22:19;;;;;;;8.52;5.47;;;;;;;-1.40;100.00;91880.50;2083653;28;20098;-77
2023/03/06 04:23:27;;;;;;;9.70;5.55;;;;;;;-1.38;100.00;91878.22;2093285;28;20277;-77
2023/03/06 04:24:37;;;;;;;12.88;6.60;;;;;;;-1.33;100.00;91886.47;2087789;28;20033;-77
2023/03/06 04:25:45;;;;;;;12.20;6.38;;;;;;;-1.35;100.00;91880.88;2097971;28;20114;-77
2023/03/06 04:26:50;;;;;;;9.48;5.78;;;;;;;-1.35;100.00;91882.75;2104685;27;20040;-75
2023/03/06 04:27:51;;;;;;;8.52;5.93;;;;;;;-1.40;100.00;91877.88;2100778;28;20513;-75
2023/03/06 04:28:54;;;;;;;11.68;6.63;;;;;;;-1.41;100.00;91877.09;2095804;28;20056;-76
2023/03/06 04:29:55;;;;;;;10.23;6.20;;;;;;;-1.33;100.00;91880.50;2098198;28;20042;-75
2023/03/06 04:31:01;;;;;;;9.65;6.43;;;;;;;-1.22;100.00;91877.91;2098314;28;20131;-76
2023/03/06 04:32:03;;;;;;;7.97;5.88;;;;;;;-1.23;100.00;91885.00;2112738;27;20039;-75
2023/03/06 04:33:10;;;;;;;10.43;6.63;;;;;;;-1.27;100.00;91885.00;2112880;28;20505;-75
2023/03/06 04:34:13;;;;;;;9.43;6.22;;;;;;;-1.31;100.00;91886.13;2099697;28;20539;-74
2023/03/06 04:35:20;;;;;;;12.23;7.57;;;;;;;-1.29;100.00;91881.25;2096231;28;20129;-75
2023/03/06 04:36:31;;;;;;;10.15;6.40;;;;;;;-1.32;100.00;91880.13;2100434;28;20172;-77
2023/03/06 04:37:36;;;;;;;11.60;7.07;;;;;;;-1.32;100.00;91880.13;2105787;28;20466;-75
2023/03/06 04:38:39;;;;;;;11.32;6.63;;;;;;;-1.32;100.00;91877.50;2097055;28;20169;-76
2023/03/06 04:39:40;;;;;;;9.10;5.97;;;;;;;-1.22;100.00;91877.91;2095190;28;20033;-78
2023/03/06 04:40:42;;;;;;;8.80;6.03;;;;;;;-1.32;100.00;91877.50;2095475;28;20028;-77
2023/03/06 04:41:49;;;;;;;11.82;6.57;;;;;;;-1.31;100.00;91865.16;2111930;28;20043;-75
2023/03/06 04:42:58;;;;;;;9.18;6.03;;;;;;;-1.33;100.00;91867.38;2113452;27;20130;-76
2023/03/06 04:43:59;;;;;;;10.52;6.15;;;;;;;-1.32;100.00;91869.66;2112209;28;20043;-75
2023/03/06 04:45:03;;;;;;;11.20;6.50;;;;;;;-1.35;100.00;91867.03;2102068;28;20040;-75
2023/03/06 04:46:10;;;;;;;8.98;5.85;;;;;;;-1.30;100.00;91874.50;2104672;27;20044;-76
2023/03/06 04:47:12;;;;;;;9.82;6.53;;;;;;;-1.30;100.00;91871.91;2101952;28;20028;-75
2023/03/06 04:48:18;;;;;;;10.48;5.88;;;;;;;-1.32;100.00;91880.13;2104287;28;20482;-76
2023/03/06 04:49:20;;;;;;;10.82;6.57;;;;;;;-1.10;100.00;91872.28;2104815;28;20035;-75
2023/03/06 04:50:22;;;;;;;9.57;6.32;;;;;;;-1.10;100.00;91873.06;2095782;28;20064;-75
2023/03/06 04:51:24;;;;;;;8.73;6.10;;;;;;;-1.15;100.00;91881.28;2103400;28;20043;-76
2023/03/06 04:52:26;;;;;;;8.38;5.88;;;;;;;-1.24;100.00;91873.03;2110355;28;20050;-76
2023/03/06 04:53:35;;;;;;;10.77;7.35;;;;;;;-1.16;100.00;91877.16;2112672;28;20151;-75
2023/03/06 04:54:47;;;;;;;8.98;6.20;;;;;;;-1.16;100.00;91869.28;2097284;28;20079;-74
2023/03/06 04:55:50;;;;;;;12.93;7.43;;;;;;;-1.18;100.00;91861.06;2105345;27;20066;-75
2023/03/06 04:56:52;;;;;;;11.93;7.57;;;;;;;-1.12;100.00;91864.06;2108800;28;20946;-75
2023/03/06 04:57:53;;;;;;;13.95;8.70;;;;;;;-0.95;100.00;91876.44;2112436;28;20035;-74
2023/03/06 04:58:55;;;;;;;11.80;8.35;;;;;;;-0.94;100.00;91875.31;2104453;28;20549;-75
2023/03/06 04:59:56;;;;;;;9.98;7.20;;;;;;;-0.99;100.00;91869.69;2099352;28;20035;-74
2023/03/06 05:01:01;;;;;;;13.63;8.05;;;;;;;-0.95;100.00;91868.56;2119234;27;20390;-75
2023/03/06 05:02:06;;;;;;;11.82;7.60;;;;;;;-1.05;100.00;91872.69;2118242;27;20073;-76
2023/03/06 05:03:11;;;;;;;11.75;7.30;;;;;;;-1.03;100.00;91880.91;2112545;28;20385;-76
2023/03/06 05:04:18;;;;;;;14.10;7.93;;;;;;;-1.05;100.00;91874.56;2100849;28;20123;-76
2023/03/06 05:05:25;;;;;;;11.93;8.02;;;;;;;-1.08;100.00;91870.81;2096123;28;20032;-76
2023/03/06 05:06:30;;;;;;;17.13;7.63;;;;;;;-1.11;100.00;91868.16;2102792;28;20036;-79
2023/03/06 05:07:36;;;;;;;13.40;7.82;;;;;;;-1.15;100.00;91873.41;2104175;28;20028;-76